sensor_id;sensor_type;location;lat;lon;timestamp;pressure;altitude;pressure_sealevel;temperature;humidity
35419;BME280;21525;41.240;16.500;2023-05-15T00:00:59;100832.53;;;25.44;100.00
35419;BME280;21525;41.240;16.500;2023-05-15T00:03:26;100820.16;;;25.56;100.00
35419;BME280;21525;41.240;16.500;2023-05-15T00:05:52;100815.00;;;25.90;100.00
35419;BME280;21525;41.240;16.500;2023-05-15T00:08:18;100828.75;;;24.99;100.00
35419;BME280;21525;41.240;16.500;2023-05-15T00:10:43;100826.16;;;25.10;100.00
35419;BME280;21525;41.240;16.500;2023-05-15T00:13:09;100821.06;;;24.95;100.00
35419;BME280;21525;41.240;16.500;2023-05-15T00:15:35;100816.75;;;25.30;100.00
35419;BME280;21525;41.240;16.500;2023-05-15T00:18:00;100812.88;;;25.34;100.00
35419;BME280;21525;41.240;16.500;2023-05-15T00:20:26;100814.66;;;25.47;100.00
35419;BME280;21525;41.240;16.500;2023-05-15T00:22:52;100816.97;;;25.27;100.00
35419;BME280;21525;41.240;16.500;2023-05-15T00:25:17;100823.66;;;24.96;100.00
35419;BME280;21525;41.240;16.500;2023-05-15T00:27:44;100817.66;;;24.93;100.00
35419;BME280;21525;41.240;16.500;2023-05-15T00:30:11;100817.19;;;25.24;100.00
35419;BME280;21525;41.240;16.500;2023-05-15T00:32:38;100819.28;;;24.95;100.00
35419;BME280;21525;41.240;16.500;2023-05-15T00:35:04;100816.28;;;25.36;96.77
35419;BME280;21525;41.240;16.500;2023-05-15T00:37:30;100810.81;;;25.14;97.77
35419;BME280;21525;41.240;16.500;2023-05-15T00:39:56;100810.66;;;24.92;99.47
35419;BME280;21525;41.240;16.500;2023-05-15T00:42:22;100793.72;;;24.93;98.51
35419;BME280;21525;41.240;16.500;2023-05-15T00:44:51;100780.41;;;25.05;97.26
35419;BME280;21525;41.240;16.500;2023-05-15T00:47:19;100767.44;;;24.88;98.70
35419;BME280;21525;41.240;16.500;2023-05-15T00:49:47;100779.28;;;25.21;97.43
35419;BME280;21525;41.240;16.500;2023-05-15T00:52:13;100777.78;;;25.29;96.87
35419;BME280;21525;41.240;16.500;2023-05-15T00:54:39;100772.13;;;24.97;99.22
35419;BME280;21525;41.240;16.500;2023-05-15T00:57:07;100774.69;;;24.99;99.67
35419;BME280;21525;41.240;16.500;2023-05-15T00:59:35;100790.38;;;25.15;99.21
35419;BME280;21525;41.240;16.500;2023-05-15T01:02:03;100793.81;;;24.91;100.00
35419;BME280;21525;41.240;16.500;2023-05-15T01:04:29;100803.63;;;24.78;100.00
35419;BME280;21525;41.240;16.500;2023-05-15T01:06:55;100825.16;;;25.00;100.00
35419;BME280;21525;41.240;16.500;2023-05-15T01:09:26;100839.47;;;25.10;100.00
35419;BME280;21525;41.240;16.500;2023-05-15T01:11:56;100828.50;;;25.15;100.00
35419;BME280;21525;41.240;16.500;2023-05-15T01:14:24;100836.00;;;24.97;100.00
35419;BME280;21525;41.240;16.500;2023-05-15T01:16:50;100842.28;;;24.96;100.00
35419;BME280;21525;41.240;16.500;2023-05-15T01:19:16;100858.66;;;24.65;100.00
35419;BME280;21525;41.240;16.500;2023-05-15T01:27:36;100834.28;;;24.84;100.00
35419;BME280;21525;41.240;16.500;2023-05-15T01:30:09;100839.81;;;24.93;100.00
35419;BME280;21525;41.240;16.500;2023-05-15T01:32:52;100835.66;;;24.89;100.00
35419;BME280;21525;41.240;16.500;2023-05-15T01:35:30;100799.19;;;24.40;100.00
35419;BME280;21525;41.240;16.500;2023-05-15T01:38:24;100770.03;;;24.13;100.00
35419;BME280;21525;41.240;16.500;2023-05-15T01:44:44;100782.38;;;24.53;100.00
35419;BME280;21525;41.240;16.500;2023-05-15T01:47:36;100782.19;;;24.43;100.00
35419;BME280;21525;41.240;16.500;2023-05-15T01:50:05;100784.94;;;24.41;100.00
35419;BME280;21525;41.240;16.500;2023-05-15T01:52:34;100787.06;;;24.62;100.00
35419;BME280;21525;41.240;16.500;2023-05-15T01:55:01;100787.19;;;24.48;100.00
35419;BME280;21525;41.240;16.500;2023-05-15T01:57:30;100793.03;;;24.27;100.00
35419;BME280;21525;41.240;16.500;2023-05-15T01:59:57;100786.22;;;24.49;100.00
35419;BME280;21525;41.240;16.500;2023-05-15T02:02:23;100776.19;;;24.14;100.00
35419;BME280;21525;41.240;16.500;2023-05-15T02:04:53;100776.56;;;24.35;100.00
35419;BME280;21525;41.240;16.500;2023-05-15T02:07:20;100793.47;;;24.34;100.00
35419;BME280;21525;41.240;16.500;2023-05-15T02:09:47;100788.41;;;24.17;100.00
35419;BME280;21525;41.240;16.500;2023-05-15T02:12:12;100778.16;;;24.25;100.00
35419;BME280;21525;41.240;16.500;2023-05-15T02:14:39;100783.97;;;24.42;100.00
35419;BME280;21525;41.240;16.500;2023-05-15T02:17:05;100791.56;;;24.36;100.00
35419;BME280;21525;41.240;16.500;2023-05-15T02:19:32;100805.53;;;24.12;100.00
35419;BME280;21525;41.240;16.500;2023-05-15T02:22:04;100792.09;;;24.28;100.00
35419;BME280;21525;41.240;16.500;2023-05-15T02:24:30;100778.69;;;24.30;100.00
35419;BME280;21525;41.240;16.500;2023-05-15T02:29:33;100797.09;;;24.33;100.00
35419;BME280;21525;41.240;16.500;2023-05-15T02:32:24;100776.78;;;24.32;100.00
35419;BME280;21525;41.240;16.500;2023-05-15T02:35:18;100781.06;;;24.07;100.00
35419;BME280;21525;41.240;16.500;2023-05-15T02:37:49;100738.03;;;24.15;100.00
35419;BME280;21525;41.240;16.500;2023-05-15T02:40:17;100732.16;;;23.85;100.00
35419;BME280;21525;41.240;16.500;2023-05-15T02:42:46;100724.56;;;24.31;100.00
35419;BME280;21525;41.240;16.500;2023-05-15T02:45:12;100715.16;;;24.51;100.00
35419;BME280;21525;41.240;16.500;2023-05-15T02:47:39;100729.84;;;24.18;100.00
35419;BME280;21525;41.240;16.500;2023-05-15T02:50:05;100743.78;;;24.47;99.98
35419;BME280;21525;41.240;16.500;2023-05-15T02:52:33;100755.88;;;24.13;100.00
35419;BME280;21525;41.240;16.500;2023-05-15T02:54:59;100754.38;;;24.09;100.00
35419;BME280;21525;41.240;16.500;2023-05-15T02:57:25;100751.72;;;24.09;100.00
35419;BME280;21525;41.240;16.500;2023-05-15T02:59:54;100745.59;;;24.21;100.00
35419;BME280;21525;41.240;16.500;2023-05-15T03:02:22;100732.19;;;24.23;98.80
35419;BME280;21525;41.240;16.500;2023-05-15T03:04:47;100712.94;;;24.06;99.63
35419;BME280;21525;41.240;16.500;2023-05-15T03:07:14;100703.47;;;23.77;100.00
35419;BME280;21525;41.240;16.500;2023-05-15T03:09:40;100699.03;;;23.90;96.67
35419;BME280;21525;41.240;16.500;2023-05-15T03:12:06;100709.66;;;24.03;94.45
35419;BME280;21525;41.240;16.500;2023-05-15T03:14:32;100719.09;;;23.82;97.49
35419;BME280;21525;41.240;16.500;2023-05-15T03:16:59;100733.22;;;23.69;97.00
35419;BME280;21525;41.240;16.500;2023-05-15T03:19:24;100743.22;;;23.91;95.51
35419;BME280;21525;41.240;16.500;2023-05-15T03:21:50;100722.25;;;23.74;97.32
35419;BME280;21525;41.240;16.500;2023-05-15T03:24:16;100711.63;;;23.74;95.72
35419;BME280;21525;41.240;16.500;2023-05-15T03:26:42;100695.25;;;23.55;96.65
35419;BME280;21525;41.240;16.500;2023-05-15T03:29:09;100697.41;;;23.75;97.62
35419;BME280;21525;41.240;16.500;2023-05-15T03:31:35;100694.88;;;23.86;95.14
35419;BME280;21525;41.240;16.500;2023-05-15T03:34:01;100677.13;;;23.87;97.10
35419;BME280;21525;41.240;16.500;2023-05-15T03:36:27;100676.59;;;23.69;98.65
35419;BME280;21525;41.240;16.500;2023-05-15T03:38:52;100667.75;;;24.06;97.18
35419;BME280;21525;41.240;16.500;2023-05-15T03:41:18;100671.19;;;23.70;99.23
35419;BME280;21525;41.240;16.500;2023-05-15T03:43:44;100668.50;;;24.08;97.05
35419;BME280;21525;41.240;16.500;2023-05-15T03:46:10;100665.25;;;23.92;97.78
35419;BME280;21525;41.240;16.500;2023-05-15T03:48:39;100659.16;;;23.77;99.27
35419;BME280;21525;41.240;16.500;2023-05-15T03:51:05;100664.78;;;23.73;98.97
35419;BME280;21525;41.240;16.500;2023-05-15T03:53:31;100650.00;;;24.07;98.17
35419;BME280;21525;41.240;16.500;2023-05-15T03:55:56;100627.19;;;23.54;98.12
35419;BME280;21525;41.240;16.500;2023-05-15T03:58:22;100659.31;;;23.49;100.00
35419;BME280;21525;41.240;16.500;2023-05-15T04:00:48;100677.13;;;23.74;100.00
35419;BME280;21525;41.240;16.500;2023-05-15T04:03:14;100698.59;;;23.71;99.31
35419;BME280;21525;41.240;16.500;2023-05-15T04:05:40;100683.94;;;23.65;99.94
35419;BME280;21525;41.240;16.500;2023-05-15T04:08:05;100677.97;;;23.62;100.00
35419;BME280;21525;41.240;16.500;2023-05-15T04:10:31;100662.25;;;23.59;100.00
35419;BME280;21525;41.240;16.500;2023-05-15T04:12:58;100657.47;;;23.89;99.76
35419;BME280;21525;41.240;16.500;2023-05-15T04:15:24;100638.47;;;23.70;100.00
35419;BME280;21525;41.240;16.500;2023-05-15T04:17:52;100635.78;;;23.83;100.00
35419;BME280;21525;41.240;16.500;2023-05-15T04:20:19;100626.66;;;23.61;100.00
35419;BME280;21525;41.240;16.500;2023-05-15T04:22:46;100649.94;;;23.96;98.80
35419;BME280;21525;41.240;16.500;2023-05-15T04:25:12;100672.34;;;23.79;99.82
35419;BME280;21525;41.240;16.500;2023-05-15T04:27:39;100678.47;;;23.54;99.78
35419;BME280;21525;41.240;16.500;2023-05-15T04:30:07;100656.03;;;23.45;99.99
35419;BME280;21525;41.240;16.500;2023-05-15T04:32:33;100639.50;;;23.55;98.21
35419;BME280;21525;41.240;16.500;2023-05-15T04:34:59;100670.84;;;23.75;99.96
35419;BME280;21525;41.240;16.500;2023-05-15T04:37:26;100685.63;;;23.39;100.00
35419;BME280;21525;41.240;16.500;2023-05-15T04:39:52;100692.53;;;23.42;100.00
35419;BME280;21525;41.240;16.500;2023-05-15T04:42:18;100681.69;;;23.32;100.00
35419;BME280;21525;41.240;16.500;2023-05-15T04:44:44;100669.03;;;23.23;100.00
35419;BME280;21525;41.240;16.500;2023-05-15T04:47:10;100629.06;;;23.39;100.00
35419;BME280;21525;41.240;16.500;2023-05-15T04:49:36;100600.91;;;23.49;100.00
35419;BME280;21525;41.240;16.500;2023-05-15T04:52:02;100585.09;;;23.48;100.00
35419;BME280;21525;41.240;16.500;2023-05-15T04:54:28;100569.72;;;21.04;100.00
35419;BME280;21525;41.240;16.500;2023-05-15T04:56:54;100593.16;;;21.40;100.00
35419;BME280;21525;41.240;16.500;2023-05-15T04:59:20;100610.66;;;22.84;100.00
35419;BME280;21525;41.240;16.500;2023-05-15T05:01:45;100592.97;;;22.70;100.00
35419;BME280;21525;41.240;16.500;2023-05-15T05:04:11;100561.81;;;22.73;100.00
35419;BME280;21525;41.240;16.500;2023-05-15T05:06:37;100537.91;;;20.60;100.00
35419;BME280;21525;41.240;16.500;2023-05-15T05:09:02;100564.78;;;22.28;100.00
35419;BME280;21525;41.240;16.500;2023-05-15T05:11:28;100603.44;;;22.86;100.00
35419;BME280;21525;41.240;16.500;2023-05-15T05:13:57;100618.66;;;23.49;100.00
35419;BME280;21525;41.240;16.500;2023-05-15T05:16:23;100665.16;;;23.02;100.00
35419;BME280;21525;41.240;16.500;2023-05-15T05:18:48;100680.97;;;23.30;100.00
35419;BME280;21525;41.240;16.500;2023-05-15T05:21:14;100697.50;;;23.61;100.00
35419;BME280;21525;41.240;16.500;2023-05-15T05:23:40;100709.31;;;23.42;100.00
35419;BME280;21525;41.240;16.500;2023-05-15T05:26:06;100714.50;;;23.31;100.00
35419;BME280;21525;41.240;16.500;2023-05-15T05:28:32;100710.59;;;23.37;100.00
35419;BME280;21525;41.240;16.500;2023-05-15T05:30:58;100719.06;;;23.56;100.00
35419;BME280;21525;41.240;16.500;2023-05-15T05:33:23;100731.19;;;23.33;100.00
35419;BME280;21525;41.240;16.500;2023-05-15T05:35:49;100737.03;;;23.38;100.00
35419;BME280;21525;41.240;16.500;2023-05-15T05:38:16;100730.47;;;23.17;100.00
35419;BME280;21525;41.240;16.500;2023-05-15T05:40:41;100727.25;;;23.66;100.00
35419;BME280;21525;41.240;16.500;2023-05-15T05:43:07;100741.59;;;23.76;100.00
35419;BME280;21525;41.240;16.500;2023-05-15T05:45:33;100749.97;;;23.57;100.00
35419;BME280;21525;41.240;16.500;2023-05-15T05:47:58;100751.25;;;23.37;100.00
35419;BME280;21525;41.240;16.500;2023-05-15T05:50:25;100746.75;;;23.25;100.00
35419;BME280;21525;41.240;16.500;2023-05-15T05:52:51;100729.81;;;23.67;100.00
35419;BME280;21525;41.240;16.500;2023-05-15T05:55:17;100743.50;;;23.61;100.00
35419;BME280;21525;41.240;16.500;2023-05-15T05:57:42;100743.81;;;23.42;100.00
35419;BME280;21525;41.240;16.500;2023-05-15T06:00:09;100721.91;;;23.53;100.00
35419;BME280;21525;41.240;16.500;2023-05-15T06:02:38;100709.97;;;23.06;100.00
35419;BME280;21525;41.240;16.500;2023-05-15T06:05:04;100712.75;;;22.91;100.00
35419;BME280;21525;41.240;16.500;2023-05-15T06:07:31;100711.72;;;22.65;100.00
35419;BME280;21525;41.240;16.500;2023-05-15T06:09:56;100713.59;;;22.91;100.00
35419;BME280;21525;41.240;16.500;2023-05-15T06:12:22;100708.00;;;23.23;100.00
35419;BME280;21525;41.240;16.500;2023-05-15T06:14:49;100692.31;;;23.32;100.00
35419;BME280;21525;41.240;16.500;2023-05-15T06:17:14;100679.22;;;22.90;100.00
35419;BME280;21525;41.240;16.500;2023-05-15T06:19:41;100673.59;;;23.21;100.00
35419;BME280;21525;41.240;16.500;2023-05-15T06:22:06;100673.16;;;22.88;100.00
35419;BME280;21525;41.240;16.500;2023-05-15T06:24:32;100667.25;;;22.97;100.00
35419;BME280;21525;41.240;16.500;2023-05-15T06:26:58;100683.66;;;22.89;100.00
35419;BME280;21525;41.240;16.500;2023-05-15T06:29:25;100683.81;;;23.27;100.00
35419;BME280;21525;41.240;16.500;2023-05-15T06:31:51;100673.03;;;23.16;100.00
35419;BME280;21525;41.240;16.500;2023-05-15T06:34:16;100678.00;;;23.08;100.00
35419;BME280;21525;41.240;16.500;2023-05-15T06:36:42;100671.34;;;22.88;100.00
35419;BME280;21525;41.240;16.500;2023-05-15T06:39:08;100667.50;;;23.06;100.00
35419;BME280;21525;41.240;16.500;2023-05-15T06:41:37;100668.63;;;23.29;100.00
35419;BME280;21525;41.240;16.500;2023-05-15T06:44:03;100676.84;;;23.39;100.00
35419;BME280;21525;41.240;16.500;2023-05-15T06:46:29;100675.75;;;23.41;100.00
35419;BME280;21525;41.240;16.500;2023-05-15T06:48:55;100684.97;;;23.63;100.00
35419;BME280;21525;41.240;16.500;2023-05-15T06:51:21;100695.44;;;23.52;100.00
35419;BME280;21525;41.240;16.500;2023-05-15T06:53:47;100695.03;;;23.18;100.00
35419;BME280;21525;41.240;16.500;2023-05-15T06:56:12;100687.47;;;23.52;100.00
35419;BME280;21525;41.240;16.500;2023-05-15T06:58:38;100691.25;;;23.74;100.00
35419;BME280;21525;41.240;16.500;2023-05-15T07:01:04;100689.13;;;23.67;100.00
35419;BME280;21525;41.240;16.500;2023-05-15T07:03:31;100689.94;;;23.55;100.00
35419;BME280;21525;41.240;16.500;2023-05-15T07:05:57;100682.75;;;23.57;100.00
35419;BME280;21525;41.240;16.500;2023-05-15T07:08:23;100679.88;;;23.60;100.00
35419;BME280;21525;41.240;16.500;2023-05-15T07:10:49;100661.63;;;23.41;100.00
35419;BME280;21525;41.240;16.500;2023-05-15T07:13:16;100660.22;;;23.62;100.00
35419;BME280;21525;41.240;16.500;2023-05-15T07:15:42;100660.31;;;23.73;100.00
35419;BME280;21525;41.240;16.500;2023-05-15T07:18:08;100652.06;;;23.65;100.00
35419;BME280;21525;41.240;16.500;2023-05-15T07:20:34;100647.47;;;23.55;100.00
35419;BME280;21525;41.240;16.500;2023-05-15T07:23:00;100643.22;;;23.77;100.00
35419;BME280;21525;41.240;16.500;2023-05-15T07:25:26;100647.59;;;23.66;100.00
35419;BME280;21525;41.240;16.500;2023-05-15T07:27:52;100647.94;;;23.34;100.00
35419;BME280;21525;41.240;16.500;2023-05-15T07:30:18;100644.63;;;23.58;100.00
35419;BME280;21525;41.240;16.500;2023-05-15T07:32:44;100641.34;;;23.40;100.00
35419;BME280;21525;41.240;16.500;2023-05-15T07:35:09;100634.13;;;23.69;100.00
35419;BME280;21525;41.240;16.500;2023-05-15T07:37:38;100619.88;;;23.70;100.00
35419;BME280;21525;41.240;16.500;2023-05-15T07:40:05;100611.47;;;23.76;100.00
35419;BME280;21525;41.240;16.500;2023-05-15T07:42:31;100613.66;;;23.44;100.00
35419;BME280;21525;41.240;16.500;2023-05-15T07:44:57;100595.34;;;23.66;100.00
35419;BME280;21525;41.240;16.500;2023-05-15T07:47:22;100577.53;;;24.18;100.00
35419;BME280;21525;41.240;16.500;2023-05-15T07:49:48;100545.19;;;23.74;100.00
35419;BME280;21525;41.240;16.500;2023-05-15T07:52:14;100519.47;;;23.50;100.00
35419;BME280;21525;41.240;16.500;2023-05-15T07:54:39;100523.53;;;23.30;100.00
35419;BME280;21525;41.240;16.500;2023-05-15T07:57:07;100524.41;;;23.56;100.00
35419;BME280;21525;41.240;16.500;2023-05-15T07:59:34;100530.31;;;23.46;100.00
35419;BME280;21525;41.240;16.500;2023-05-15T08:02:00;100537.78;;;23.67;100.00
35419;BME280;21525;41.240;16.500;2023-05-15T08:04:25;100531.69;;;23.52;100.00
35419;BME280;21525;41.240;16.500;2023-05-15T08:06:51;100539.44;;;23.81;100.00
35419;BME280;21525;41.240;16.500;2023-05-15T08:09:17;100531.66;;;22.62;100.00
35419;BME280;21525;41.240;16.500;2023-05-15T08:11:43;100535.19;;;23.15;100.00
35419;BME280;21525;41.240;16.500;2023-05-15T08:14:09;100537.78;;;23.54;100.00
35419;BME280;21525;41.240;16.500;2023-05-15T08:16:35;100532.97;;;23.46;100.00
35419;BME280;21525;41.240;16.500;2023-05-15T08:19:00;100535.63;;;23.34;100.00
35419;BME280;21525;41.240;16.500;2023-05-15T08:21:32;100538.19;;;23.61;100.00
35419;BME280;21525;41.240;16.500;2023-05-15T08:23:59;100537.13;;;23.63;100.00
35419;BME280;21525;41.240;16.500;2023-05-15T08:26:25;100527.34;;;23.51;100.00
35419;BME280;21525;41.240;16.500;2023-05-15T08:28:51;100527.94;;;23.93;100.00
35419;BME280;21525;41.240;16.500;2023-05-15T08:31:17;100518.72;;;23.48;100.00
35419;BME280;21525;41.240;16.500;2023-05-15T08:33:42;100514.16;;;23.75;100.00
35419;BME280;21525;41.240;16.500;2023-05-15T08:36:08;100524.41;;;23.56;100.00
35419;BME280;21525;41.240;16.500;2023-05-15T08:38:34;100518.03;;;23.71;100.00
35419;BME280;21525;41.240;16.500;2023-05-15T08:41:06;100503.34;;;24.15;100.00
35419;BME280;21525;41.240;16.500;2023-05-15T08:43:35;100481.97;;;24.16;100.00
35419;BME280;21525;41.240;16.500;2023-05-15T08:46:05;100499.97;;;23.63;100.00
35419;BME280;21525;41.240;16.500;2023-05-15T08:48:35;100511.88;;;23.58;100.00
35419;BME280;21525;41.240;16.500;2023-05-15T08:51:01;100507.41;;;23.58;100.00
35419;BME280;21525;41.240;16.500;2023-05-15T08:53:28;100494.25;;;23.57;100.00
35419;BME280;21525;41.240;16.500;2023-05-15T08:55:54;100463.88;;;23.61;100.00
35419;BME280;21525;41.240;16.500;2023-05-15T08:58:20;100445.06;;;23.64;100.00
35419;BME280;21525;41.240;16.500;2023-05-15T09:00:50;100419.81;;;23.82;100.00
35419;BME280;21525;41.240;16.500;2023-05-15T09:03:16;100394.41;;;23.67;100.00
35419;BME280;21525;41.240;16.500;2023-05-15T09:05:45;100380.59;;;23.62;100.00
35419;BME280;21525;41.240;16.500;2023-05-15T09:08:15;100392.91;;;23.63;100.00
35419;BME280;21525;41.240;16.500;2023-05-15T09:10:42;100414.50;;;23.82;100.00
35419;BME280;21525;41.240;16.500;2023-05-15T09:13:08;100427.53;;;23.98;100.00
35419;BME280;21525;41.240;16.500;2023-05-15T09:15:35;100416.50;;;23.91;100.00
35419;BME280;21525;41.240;16.500;2023-05-15T09:18:02;100396.47;;;23.74;100.00
35419;BME280;21525;41.240;16.500;2023-05-15T09:22:56;100404.38;;;24.11;100.00
35419;BME280;21525;41.240;16.500;2023-05-15T09:27:58;100418.50;;;24.00;100.00
35419;BME280;21525;41.240;16.500;2023-05-15T09:30:25;100431.97;;;24.45;100.00
35419;BME280;21525;41.240;16.500;2023-05-15T09:32:52;100435.31;;;24.25;100.00
35419;BME280;21525;41.240;16.500;2023-05-15T09:35:30;100439.50;;;24.51;100.00
35419;BME280;21525;41.240;16.500;2023-05-15T09:37:57;100444.75;;;24.29;100.00
35419;BME280;21525;41.240;16.500;2023-05-15T09:40:28;100448.78;;;24.45;100.00
35419;BME280;21525;41.240;16.500;2023-05-15T09:42:54;100449.84;;;24.43;100.00
35419;BME280;21525;41.240;16.500;2023-05-15T09:45:19;100463.84;;;24.34;100.00
35419;BME280;21525;41.240;16.500;2023-05-15T09:47:45;100473.56;;;24.46;100.00
35419;BME280;21525;41.240;16.500;2023-05-15T09:50:11;100465.84;;;24.06;100.00
35419;BME280;21525;41.240;16.500;2023-05-15T09:52:37;100468.88;;;24.26;100.00
35419;BME280;21525;41.240;16.500;2023-05-15T09:55:04;100471.94;;;24.32;100.00
35419;BME280;21525;41.240;16.500;2023-05-15T09:57:30;100469.91;;;24.36;100.00
35419;BME280;21525;41.240;16.500;2023-05-15T09:59:59;100461.34;;;24.43;100.00
35419;BME280;21525;41.240;16.500;2023-05-15T10:02:27;100464.09;;;24.31;100.00
35419;BME280;21525;41.240;16.500;2023-05-15T10:04:57;100466.38;;;24.59;100.00
35419;BME280;21525;41.240;16.500;2023-05-15T10:07:28;100460.03;;;24.49;100.00
35419;BME280;21525;41.240;16.500;2023-05-15T10:09:54;100463.72;;;24.59;100.00
35419;BME280;21525;41.240;16.500;2023-05-15T10:12:20;100465.03;;;24.54;100.00
35419;BME280;21525;41.240;16.500;2023-05-15T10:14:47;100463.13;;;24.32;100.00
35419;BME280;21525;41.240;16.500;2023-05-15T10:17:15;100449.91;;;24.06;100.00
35419;BME280;21525;41.240;16.500;2023-05-15T10:19:42;100441.31;;;24.51;100.00
35419;BME280;21525;41.240;16.500;2023-05-15T10:22:09;100449.00;;;24.19;100.00
35419;BME280;21525;41.240;16.500;2023-05-15T10:24:37;100437.53;;;24.18;100.00
35419;BME280;21525;41.240;16.500;2023-05-15T10:27:05;100436.97;;;24.02;100.00
35419;BME280;21525;41.240;16.500;2023-05-15T10:29:32;100434.41;;;24.48;100.00
35419;BME280;21525;41.240;16.500;2023-05-15T10:32:00;100435.59;;;24.20;100.00
35419;BME280;21525;41.240;16.500;2023-05-15T10:34:27;100441.88;;;24.43;100.00
35419;BME280;21525;41.240;16.500;2023-05-15T10:36:53;100444.84;;;24.27;100.00
35419;BME280;21525;41.240;16.500;2023-05-15T10:39:20;100452.28;;;24.46;100.00
35419;BME280;21525;41.240;16.500;2023-05-15T10:41:46;100462.53;;;24.74;100.00
35419;BME280;21525;41.240;16.500;2023-05-15T10:44:14;100455.69;;;24.24;100.00
35419;BME280;21525;41.240;16.500;2023-05-15T10:46:40;100452.63;;;24.41;100.00
35419;BME280;21525;41.240;16.500;2023-05-15T10:49:06;100461.22;;;24.45;100.00
35419;BME280;21525;41.240;16.500;2023-05-15T10:51:32;100468.66;;;24.29;100.00
35419;BME280;21525;41.240;16.500;2023-05-15T10:54:00;100459.13;;;24.13;100.00
35419;BME280;21525;41.240;16.500;2023-05-15T10:56:32;100455.47;;;24.03;100.00
35419;BME280;21525;41.240;16.500;2023-05-15T10:59:04;100463.75;;;24.23;100.00
35419;BME280;21525;41.240;16.500;2023-05-15T11:01:38;100456.97;;;24.19;100.00
35419;BME280;21525;41.240;16.500;2023-05-15T11:04:14;100464.31;;;24.28;100.00
35419;BME280;21525;41.240;16.500;2023-05-15T11:06:47;100463.84;;;24.34;100.00
35419;BME280;21525;41.240;16.500;2023-05-15T11:14:17;100448.44;;;24.50;100.00
35419;BME280;21525;41.240;16.500;2023-05-15T11:17:03;100450.78;;;24.31;100.00
35419;BME280;21525;41.240;16.500;2023-05-15T11:25:07;100405.47;;;24.08;100.00
35419;BME280;21525;41.240;16.500;2023-05-15T11:27:44;100395.78;;;24.07;100.00
35419;BME280;21525;41.240;16.500;2023-05-15T11:32:57;100381.84;;;24.17;100.00
35419;BME280;21525;41.240;16.500;2023-05-15T11:35:30;100373.25;;;24.13;100.00
35419;BME280;21525;41.240;16.500;2023-05-15T11:38:10;100365.13;;;24.27;100.00
35419;BME280;21525;41.240;16.500;2023-05-15T11:43:22;100366.19;;;24.25;100.00
35419;BME280;21525;41.240;16.500;2023-05-15T11:45:52;100344.78;;;23.91;100.00
35419;BME280;21525;41.240;16.500;2023-05-15T11:48:22;100348.19;;;24.04;100.00
35419;BME280;21525;41.240;16.500;2023-05-15T11:50:48;100334.69;;;24.07;100.00
35419;BME280;21525;41.240;16.500;2023-05-15T11:53:14;100326.25;;;24.02;100.00
35419;BME280;21525;41.240;16.500;2023-05-15T11:55:42;100326.09;;;23.69;100.00
35419;BME280;21525;41.240;16.500;2023-05-15T11:58:13;100319.13;;;23.79;100.00
35419;BME280;21525;41.240;16.500;2023-05-15T12:00:41;100313.06;;;24.01;100.00
35419;BME280;21525;41.240;16.500;2023-05-15T12:03:21;100314.41;;;24.06;100.00
35419;BME280;21525;41.240;16.500;2023-05-15T12:05:48;100326.66;;;24.55;100.00
35419;BME280;21525;41.240;16.500;2023-05-15T12:08:14;100320.81;;;24.04;100.00
35419;BME280;21525;41.240;16.500;2023-05-15T12:10:44;100310.81;;;24.19;100.00
35419;BME280;21525;41.240;16.500;2023-05-15T12:13:10;100326.75;;;24.19;100.00
35419;BME280;21525;41.240;16.500;2023-05-15T12:15:37;100329.03;;;24.36;100.00
35419;BME280;21525;41.240;16.500;2023-05-15T12:18:05;100327.47;;;24.33;100.00
35419;BME280;21525;41.240;16.500;2023-05-15T12:20:33;100312.59;;;24.42;100.00
35419;BME280;21525;41.240;16.500;2023-05-15T12:23:03;100321.41;;;24.07;100.00
35419;BME280;21525;41.240;16.500;2023-05-15T12:25:29;100326.38;;;24.12;100.00
35419;BME280;21525;41.240;16.500;2023-05-15T12:27:56;100331.16;;;23.96;100.00
35419;BME280;21525;41.240;16.500;2023-05-15T12:30:23;100314.63;;;24.38;100.00
35419;BME280;21525;41.240;16.500;2023-05-15T12:32:49;100309.50;;;24.24;100.00
35419;BME280;21525;41.240;16.500;2023-05-15T12:35:15;100278.31;;;24.15;100.00
35419;BME280;21525;41.240;16.500;2023-05-15T12:37:40;100242.47;;;24.21;100.00
35419;BME280;21525;41.240;16.500;2023-05-15T12:40:07;100216.59;;;24.11;100.00
35419;BME280;21525;41.240;16.500;2023-05-15T12:42:41;100209.13;;;23.46;100.00
35419;BME280;21525;41.240;16.500;2023-05-15T12:45:17;100232.50;;;23.89;100.00
35419;BME280;21525;41.240;16.500;2023-05-15T12:47:44;100227.22;;;24.11;100.00
35419;BME280;21525;41.240;16.500;2023-05-15T12:50:18;100219.78;;;23.82;100.00
35419;BME280;21525;41.240;16.500;2023-05-15T12:52:55;100229.50;;;23.35;100.00
35419;BME280;21525;41.240;16.500;2023-05-15T12:57:48;100221.06;;;23.17;100.00
35419;BME280;21525;41.240;16.500;2023-05-15T13:00:14;100216.41;;;22.71;100.00
35419;BME280;21525;41.240;16.500;2023-05-15T13:02:43;100218.06;;;21.84;100.00
35419;BME280;21525;41.240;16.500;2023-05-15T13:05:10;100201.28;;;22.23;100.00
35419;BME280;21525;41.240;16.500;2023-05-15T13:07:39;100178.84;;;22.03;100.00